Time;durP1;ratioP1;P1;durP2;ratioP2;P2;SDS_P1;SDS_P2;PMS_P1;PMS_P2;Temp;Humidity;BMP_temperature;BMP_pressure;BME280_temperature;BME280_humidity;BME280_pressure;Samples;Min_cycle;Max_cycle;Signal;HPM_P1;HPM_P2
2022/12/25 00:00:11;;;;;;;60.15;19.27;;;5.40;99.90;;;;;;5092870;28;20046;-67
2022/12/25 00:02:38;;;;;;;59.28;18.98;;;5.40;99.90;;;;;;5081876;28;20046;-67
2022/12/25 00:05:05;;;;;;;56.33;19.23;;;5.60;99.90;;;;;;5084822;28;20043;-67
2022/12/25 00:07:31;;;;;;;66.40;19.40;;;5.60;99.90;;;;;;5087952;28;20039;-65
2022/12/25 00:09:56;;;;;;;69.65;19.42;;;5.50;99.90;;;;;;5099779;28;20131;-67
2022/12/25 00:12:22;;;;;;;65.18;19.27;;;5.40;99.90;;;;;;5109013;28;20045;-67
2022/12/25 00:14:47;;;;;;;74.90;19.85;;;5.40;99.90;;;;;;5091504;28;20031;-66
2022/12/25 00:17:13;;;;;;;75.97;19.80;;;5.40;99.90;;;;;;5087569;28;20089;-65
2022/12/25 00:19:39;;;;;;;67.95;18.40;;;5.30;99.90;;;;;;5091606;28;20032;-66
2022/12/25 00:22:04;;;;;;;61.45;18.63;;;5.50;99.90;;;;;;5088550;28;20433;-67
2022/12/25 00:24:30;;;;;;;59.08;18.77;;;5.50;99.90;;;;;;5088747;28;20066;-67
2022/12/25 00:26:55;;;;;;;67.72;18.60;;;5.50;99.90;;;;;;5101029;28;20043;-65
2022/12/25 00:29:21;;;;;;;57.22;19.17;;;5.40;99.90;;;;;;5108681;28;20055;-68
2022/12/25 00:31:46;;;;;;;62.10;18.55;;;5.40;99.90;;;;;;5093498;28;20039;-64
2022/12/25 00:34:12;;;;;;;62.30;19.70;;;5.60;99.90;;;;;;5101053;28;20036;-65
2022/12/25 00:36:38;;;;;;;61.42;19.00;;;5.70;99.90;;;;;;5089649;28;20145;-66
2022/12/25 00:39:03;;;;;;;69.57;19.73;;;5.50;99.90;;;;;;5095626;28;20035;-66
2022/12/25 00:44:13;;;;;;;68.45;19.23;;;5.60;99.90;;;;;;5109793;28;20048;-65
2022/12/25 00:46:39;;;;;;;68.43;18.98;;;5.60;99.90;;;;;;5108758;28;20032;-65
2022/12/25 00:49:05;;;;;;;65.50;18.42;;;5.60;99.90;;;;;;5113097;28;20043;-65
2022/12/25 00:51:32;;;;;;;70.07;20.60;;;5.60;99.90;;;;;;5091851;28;20081;-67
2022/12/25 00:53:58;;;;;;;67.55;19.27;;;5.80;99.90;;;;;;5090043;28;20056;-67
2022/12/25 00:56:24;;;;;;;60.42;19.33;;;5.70;99.90;;;;;;5088865;28;20035;-67
2022/12/25 00:58:50;;;;;;;64.70;17.90;;;5.60;99.90;;;;;;5088336;28;20040;-66
2022/12/25 01:01:15;;;;;;;54.28;18.13;;;5.70;99.90;;;;;;5099718;28;20040;-68
2022/12/25 01:03:41;;;;;;;68.93;20.05;;;5.60;99.90;;;;;;5110605;28;20032;-65
2022/12/25 01:06:07;;;;;;;61.65;19.40;;;5.70;99.90;;;;;;5108637;28;20947;-66
2022/12/25 01:08:36;;;;;;;63.22;19.25;;;5.80;99.90;;;;;;5106979;28;20606;-65
2022/12/25 01:11:05;;;;;;;64.00;18.33;;;5.70;99.90;;;;;;5085592;28;20035;-65
2022/12/25 01:13:33;;;;;;;64.53;18.13;;;5.60;99.90;;;;;;5109368;28;20473;-66
2022/12/25 01:16:03;;;;;;;66.68;20.27;;;5.70;99.90;;;;;;5086560;28;20540;-67
2022/12/25 01:18:29;;;;;;;64.60;19.20;;;5.80;99.90;;;;;;5106037;28;20073;-67
2022/12/25 01:20:54;;;;;;;74.72;19.10;;;5.80;99.90;;;;;;5091149;28;20525;-66
2022/12/25 01:23:20;;;;;;;65.18;19.27;;;5.90;99.90;;;;;;5104592;28;20421;-66
2022/12/25 01:25:46;;;;;;;57.58;17.88;;;5.80;99.90;;;;;;5085210;28;20449;-67
2022/12/25 01:28:11;;;;;;;57.67;18.02;;;5.90;99.90;;;;;;5080977;28;20090;-67
2022/12/25 01:30:37;;;;;;;58.65;17.75;;;5.70;99.90;;;;;;5102833;28;20054;-66
2022/12/25 01:33:02;;;;;;;65.80;18.25;;;5.70;99.90;;;;;;5103451;28;20040;-67
2022/12/25 01:35:28;;;;;;;65.95;18.98;;;6.00;99.90;;;;;;5082189;28;20040;-68
2022/12/25 01:37:54;;;;;;;64.68;19.23;;;5.90;99.90;;;;;;5086438;28;20126;-66
2022/12/25 01:40:19;;;;;;;75.63;20.25;;;6.10;99.90;;;;;;5098121;28;20044;-65
2022/12/25 01:42:45;;;;;;;67.63;19.50;;;6.10;99.90;;;;;;5076188;28;20036;-68
2022/12/25 01:45:39;;;;;;;66.90;19.88;;;6.10;99.90;;;;;;5078512;28;20138;-65
2022/12/25 01:48:08;;;;;;;79.60;19.63;;;6.10;99.90;;;;;;5077622;28;20079;-68
2022/12/25 01:50:36;;;;;;;67.07;19.85;;;6.20;99.90;;;;;;5073032;28;20502;-66
2022/12/25 01:53:02;;;;;;;70.22;19.95;;;6.20;99.90;;;;;;5110728;28;20042;-67
2022/12/25 01:55:28;;;;;;;63.90;20.27;;;6.30;99.90;;;;;;5091845;28;20035;-67
2022/12/25 01:57:54;;;;;;;67.55;21.05;;;6.30;99.90;;;;;;5089608;28;20047;-66
2022/12/25 02:00:20;;;;;;;70.10;20.00;;;6.50;99.90;;;;;;5083761;28;20040;-67
2022/12/25 02:02:47;;;;;;;65.70;21.40;;;6.30;99.90;;;;;;5105538;28;20036;-67
2022/12/25 02:05:30;;;;;;;71.25;19.77;;;6.40;99.90;;;;;;5107558;28;20035;-66
2022/12/25 02:08:01;;;;;;;71.82;19.02;;;6.30;99.90;;;;;;5075352;28;20039;-65
2022/12/25 02:10:26;;;;;;;;;;;6.40;99.90;;;;;;5091848;28;20050;-67
2022/12/25 02:12:52;;;;;;;62.58;18.25;;;6.40;99.90;;;;;;5089016;28;20478;-66
2022/12/25 02:15:21;;;;;;;62.90;18.50;;;6.40;99.90;;;;;;5108691;28;20056;-67
2022/12/25 02:17:55;;;;;;;55.58;17.70;;;6.40;99.90;;;;;;5094922;28;20050;-67
2022/12/25 02:20:37;;;;;;;65.15;18.23;;;6.50;99.90;;;;;;5105194;28;20428;-67
2022/12/25 02:23:09;;;;;;;66.00;18.23;;;6.40;99.90;;;;;;5081971;28;20028;-68
2022/12/25 02:25:42;;;;;;;62.45;18.65;;;6.40;99.90;;;;;;5073651;28;20408;-66
2022/12/25 02:28:35;;;;;;;63.45;19.90;;;6.50;99.90;;;;;;5083102;28;20054;-68
2022/12/25 02:31:09;;;;;;;59.85;18.42;;;6.60;99.90;;;;;;5076965;28;20055;-67
2022/12/25 02:34:03;;;;;;;52.83;17.60;;;6.50;99.90;;;;;;5081976;28;20035;-68
2022/12/25 02:36:59;;;;;;;57.25;17.50;;;6.50;99.90;;;;;;5084361;28;20043;-66
2022/12/25 03:06:41;;;;;;;60.22;18.48;;;6.50;99.90;;;;;;5088361;28;20039;-67
2022/12/25 03:07:20;;;;;;;54.92;17.73;;;6.60;99.90;;;;;;5109691;28;20097;-67
2022/12/25 03:12:50;;;;;;;50.75;15.75;;;6.60;99.90;;;;;;5090455;28;20076;-67
2022/12/25 03:18:06;;;;;;;52.00;16.27;;;6.60;99.90;;;;;;5088302;28;20048;-67
2022/12/25 03:28:50;;;;;;;58.30;17.40;;;6.90;99.90;;;;;;5086784;28;20048;-68
2022/12/25 03:31:21;;;;;;;52.10;17.13;;;7.00;99.90;;;;;;5087994;28;20044;-67
2022/12/25 03:37:41;;;;;;;54.55;17.83;;;6.90;99.90;;;;;;5085504;28;20040;-68
2022/12/25 04:36:09;;;;;;;69.47;20.10;;;7.10;99.90;;;;;;5089329;28;20501;-68
2022/12/25 04:38:36;;;;;;;71.40;20.23;;;7.30;99.90;;;;;;5109291;28;20051;-68
2022/12/25 04:41:02;;;;;;;70.72;21.75;;;7.00;99.90;;;;;;5070505;28;20031;-67
2022/12/25 04:43:27;;;;;;;65.63;20.50;;;7.30;99.90;;;;;;5106657;28;20084;-66
2022/12/25 04:45:54;;;;;;;64.43;21.13;;;7.10;99.90;;;;;;5091957;28;20035;-68
2022/12/25 04:48:20;;;;;;;73.70;20.75;;;7.10;99.90;;;;;;5091990;28;20042;-68
2022/12/25 04:50:46;;;;;;;71.15;21.10;;;7.20;99.90;;;;;;5091241;28;20043;-68
2022/12/25 04:53:11;;;;;;;74.40;23.15;;;7.20;99.90;;;;;;5088173;28;20144;-68
2022/12/25 04:55:37;;;;;;;82.60;24.10;;;7.20;99.90;;;;;;5085756;28;20071;-67
2022/12/25 04:58:02;;;;;;;90.18;25.30;;;7.30;99.90;;;;;;5088194;28;20052;-68
2022/12/25 05:00:28;;;;;;;78.93;22.35;;;7.20;99.90;;;;;;5091384;28;20440;-66
2022/12/25 05:02:53;;;;;;;70.35;21.85;;;7.30;99.90;;;;;;5108388;28;20490;-67
2022/12/25 05:05:19;;;;;;;93.78;23.65;;;7.20;99.90;;;;;;5092138;28;20446;-68
2022/12/25 05:07:45;;;;;;;78.32;23.13;;;7.30;99.90;;;;;;5091497;28;20028;-68
2022/12/25 05:10:10;;;;;;;77.85;23.05;;;7.30;99.90;;;;;;5090372;28;20468;-67
2022/12/25 05:12:36;;;;;;;77.07;23.55;;;7.60;99.90;;;;;;5086080;28;20452;-67
2022/12/25 05:15:01;;;;;;;83.22;23.02;;;7.70;99.90;;;;;;5090783;28;20551;-67
2022/12/25 05:17:27;;;;;;;79.00;23.60;;;7.60;99.90;;;;;;5084128;28;20043;-66
2022/12/25 05:19:52;;;;;;;76.40;22.92;;;7.70;99.90;;;;;;5090034;28;20570;-67
2022/12/25 05:22:18;;;;;;;82.55;23.42;;;7.50;99.90;;;;;;5109826;28;20034;-67
2022/12/25 05:24:43;;;;;;;78.18;24.55;;;7.60;99.90;;;;;;5086727;28;20054;-66
2022/12/25 05:27:09;;;;;;;87.88;25.20;;;7.40;99.90;;;;;;5112850;28;20580;-67
2022/12/25 05:29:35;;;;;;;81.07;25.45;;;7.50;99.90;;;;;;5089243;28;20543;-68
2022/12/25 05:32:00;;;;;;;98.40;25.52;;;7.50;99.90;;;;;;5091559;28;20127;-67
2022/12/25 05:34:26;;;;;;;90.35;25.88;;;7.60;99.90;;;;;;5084768;28;20487;-67
2022/12/25 05:36:52;;;;;;;88.93;25.35;;;7.60;99.90;;;;;;5084222;28;20668;-67
2022/12/25 05:39:17;;;;;;;79.63;23.88;;;7.80;99.90;;;;;;5100787;28;20043;-67
2022/12/25 05:41:43;;;;;;;90.20;26.48;;;7.60;99.90;;;;;;5100159;28;20039;-67
2022/12/25 05:44:08;;;;;;;89.75;25.13;;;7.80;99.90;;;;;;5063352;28;20031;-68
2022/12/25 05:46:34;;;;;;;83.10;27.00;;;7.90;99.90;;;;;;5083237;28;20068;-65
2022/12/25 05:48:59;;;;;;;105.32;27.48;;;7.60;99.90;;;;;;5103910;28;20047;-68
2022/12/25 05:51:25;;;;;;;83.30;25.02;;;7.60;99.90;;;;;;5087901;28;20050;-67
2022/12/25 05:53:51;;;;;;;90.25;25.88;;;7.80;99.90;;;;;;5081426;28;20418;-68
2022/12/25 05:56:16;;;;;;;85.50;25.83;;;7.60;99.90;;;;;;5090778;28;20487;-66
2022/12/25 05:58:42;;;;;;;99.10;27.13;;;7.80;99.90;;;;;;5104202;28;20032;-67
2022/12/25 06:01:17;;;;;;;99.55;26.23;;;7.70;99.90;;;;;;5087282;28;20032;-67
2022/12/25 06:03:42;;;;;;;83.22;26.85;;;7.70;99.90;;;;;;5089774;28;20043;-68
2022/12/25 06:06:09;;;;;;;85.65;25.40;;;7.70;99.90;;;;;;5072687;28;20043;-66
2022/12/25 06:08:35;;;;;;;78.85;26.58;;;8.10;99.90;;;;;;5089934;28;20088;-66
2022/12/25 06:11:05;;;;;;;83.53;25.35;;;8.10;99.90;;;;;;5108630;28;20036;-68
2022/12/25 06:13:32;;;;;;;97.22;26.83;;;7.80;99.90;;;;;;5086149;28;20423;-68
2022/12/25 06:15:58;;;;;;;82.70;25.58;;;8.00;99.90;;;;;;5085908;28;20060;-66
2022/12/25 06:18:25;;;;;;;89.55;26.00;;;7.80;99.90;;;;;;5089348;28;20490;-67
2022/12/25 06:20:50;;;;;;;77.10;25.15;;;8.10;99.90;;;;;;5084490;28;20051;-66
2022/12/25 06:23:16;;;;;;;94.35;26.55;;;8.00;99.90;;;;;;5086125;28;20028;-68
2022/12/25 06:25:41;;;;;;;99.65;27.95;;;7.90;99.90;;;;;;5084697;28;20051;-69
2022/12/25 06:28:07;;;;;;;80.70;25.42;;;8.00;99.90;;;;;;5096815;28;20359;-68
2022/12/25 06:30:33;;;;;;;97.13;27.38;;;7.90;99.90;;;;;;5067452;28;20177;-67
2022/12/25 06:32:59;;;;;;;83.05;25.60;;;7.90;99.90;;;;;;5065872;28;20047;-67
2022/12/25 06:35:25;;;;;;;76.88;25.00;;;8.20;99.90;;;;;;5087786;28;20065;-69
2022/12/25 06:37:51;;;;;;;88.00;26.67;;;8.00;99.90;;;;;;5089060;28;20467;-68
2022/12/25 06:40:17;;;;;;;86.43;26.33;;;8.20;99.90;;;;;;5108891;28;20046;-68
2022/12/25 06:42:43;;;;;;;95.43;26.77;;;8.00;99.90;;;;;;5085738;28;20070;-68
2022/12/25 06:45:08;;;;;;;77.78;25.92;;;8.20;99.90;;;;;;5104348;28;20039;-68
2022/12/25 06:47:35;;;;;;;84.53;26.98;;;7.90;99.90;;;;;;5069609;28;20042;-67
2022/12/25 06:50:01;;;;;;;89.78;26.42;;;8.10;99.90;;;;;;5098687;28;20046;-68
2022/12/25 06:52:27;;;;;;;91.85;27.23;;;8.00;99.90;;;;;;5089345;28;20035;-67
2022/12/25 06:54:52;;;;;;;79.43;25.95;;;7.90;99.90;;;;;;5084587;28;20119;-67
2022/12/25 06:57:18;;;;;;;88.32;25.85;;;7.90;99.90;;;;;;5088553;28;20048;-67
2022/12/25 06:59:43;;;;;;;81.43;25.05;;;8.10;99.90;;;;;;5106915;28;20057;-67
2022/12/25 07:02:17;;;;;;;80.03;25.33;;;8.00;99.90;;;;;;5086976;28;20483;-68
2022/12/25 07:04:43;;;;;;;84.20;25.83;;;8.20;99.90;;;;;;5083940;28;20046;-69
2022/12/25 07:07:10;;;;;;;89.05;27.15;;;8.20;99.90;;;;;;5106443;28;20039;-68
2022/12/25 07:09:37;;;;;;;87.90;25.83;;;8.10;99.90;;;;;;5082501;28;20429;-69
2022/12/25 07:12:23;;;;;;;83.85;25.35;;;7.90;99.90;;;;;;5084999;28;20044;-68
2022/12/25 07:14:49;;;;;;;75.40;24.25;;;8.10;99.90;;;;;;5086648;28;20048;-67
2022/12/25 07:17:16;;;;;;;75.95;24.63;;;8.00;99.90;;;;;;5099283;28;20101;-67
2022/12/25 07:19:41;;;;;;;71.68;22.77;;;8.10;99.90;;;;;;5079428;28;20118;-68
2022/12/25 07:22:07;;;;;;;81.72;24.42;;;8.30;99.90;;;;;;5098057;28;20167;-68
2022/12/25 07:24:33;;;;;;;77.75;23.25;;;8.30;99.90;;;;;;5098835;28;20027;-68
2022/12/25 07:26:58;;;;;;;75.55;22.75;;;8.10;99.90;;;;;;5066956;28;20058;-68
2022/12/25 07:29:24;;;;;;;70.85;23.70;;;8.00;99.90;;;;;;5063843;28;20065;-68
2022/12/25 07:31:50;;;;;;;70.82;23.80;;;8.30;99.90;;;;;;5076150;28;20040;-69
2022/12/25 07:34:16;;;;;;;74.65;22.65;;;8.20;99.90;;;;;;5083794;28;20731;-68
2022/12/25 07:36:42;;;;;;;64.57;22.33;;;8.10;99.90;;;;;;5083528;28;20043;-68
2022/12/25 07:39:10;;;;;;;59.58;21.25;;;8.20;99.90;;;;;;5077593;28;20038;-68
2022/12/25 07:41:35;;;;;;;60.63;22.23;;;8.20;99.90;;;;;;5079564;28;20048;-68
2022/12/25 07:44:01;;;;;;;57.42;21.92;;;8.00;99.90;;;;;;5079608;28;20048;-66
2022/12/25 07:46:27;;;;;;;63.05;21.25;;;8.10;99.90;;;;;;5087698;28;20154;-66
2022/12/25 07:48:53;;;;;;;62.05;22.10;;;8.00;99.90;;;;;;5102403;28;20131;-67
2022/12/25 07:51:19;;;;;;;55.42;19.48;;;8.10;99.90;;;;;;5101230;28;20047;-68
2022/12/25 07:53:45;;;;;;;57.70;20.08;;;8.10;99.90;;;;;;5087077;28;20035;-66
2022/12/25 07:56:16;;;;;;;53.28;19.65;;;8.10;99.90;;;;;;5086437;28;20027;-67
2022/12/25 07:58:42;;;;;;;49.97;19.08;;;8.10;99.90;;;;;;5077846;28;20057;-67
2022/12/25 08:01:16;;;;;;;42.17;17.65;;;8.20;99.90;;;;;;5062271;28;20118;-68
2022/12/25 08:03:42;;;;;;;48.25;17.95;;;8.10;99.90;;;;;;5082598;28;20687;-67
2022/12/25 08:06:09;;;;;;;41.20;16.60;;;8.20;99.90;;;;;;5083619;28;20047;-68
2022/12/25 08:08:35;;;;;;;46.58;18.15;;;8.20;99.90;;;;;;5079686;28;20472;-68
2022/12/25 08:11:01;;;;;;;40.70;16.60;;;8.20;99.90;;;;;;5086400;28;20040;-67
2022/12/25 08:13:31;;;;;;;43.03;16.42;;;8.10;99.90;;;;;;5095463;28;20089;-67
2022/12/25 08:15:59;;;;;;;42.78;15.82;;;8.10;99.90;;;;;;5104342;28;20058;-68
2022/12/25 08:18:24;;;;;;;33.67;14.25;;;8.30;99.90;;;;;;5095829;28;20044;-65
2022/12/25 08:20:50;;;;;;;33.67;14.98;;;8.30;99.90;;;;;;5108147;28;20047;-66
2022/12/25 08:23:15;;;;;;;39.95;14.50;;;8.30;99.90;;;;;;5112469;28;20114;-68
2022/12/25 08:25:41;;;;;;;39.00;15.35;;;8.30;99.90;;;;;;5093009;28;20399;-68
2022/12/25 08:28:07;;;;;;;37.65;14.52;;;8.10;99.90;;;;;;5112237;28;20516;-68
2022/12/25 08:30:32;;;;;;;38.78;14.68;;;8.10;99.90;;;;;;5106085;28;20447;-68
2022/12/25 08:32:58;;;;;;;37.83;13.95;;;8.10;99.90;;;;;;5090014;28;20455;-67
2022/12/25 08:35:25;;;;;;;35.58;13.70;;;8.20;99.90;;;;;;5091449;28;20425;-68
2022/12/25 08:37:51;;;;;;;34.00;14.23;;;8.10;99.90;;;;;;5091711;28;20039;-67
2022/12/25 08:40:17;;;;;;;32.13;12.75;;;8.20;99.90;;;;;;5091228;28;20549;-68
2022/12/25 08:42:42;;;;;;;30.30;12.90;;;8.10;99.90;;;;;;5101160;28;20028;-68
2022/12/25 08:45:09;;;;;;;34.25;13.75;;;8.20;99.90;;;;;;5087386;28;20501;-68
2022/12/25 08:47:34;;;;;;;29.58;12.95;;;8.00;99.90;;;;;;5087348;28;20403;-66
2022/12/25 08:50:00;;;;;;;26.63;12.25;;;8.10;99.90;;;;;;5105486;28;20044;-68
2022/12/25 08:52:27;;;;;;;30.30;13.23;;;8.20;99.90;;;;;;5105553;28;20115;-68
2022/12/25 08:54:52;;;;;;;30.35;12.73;;;8.20;99.90;;;;;;5084902;28;20036;-67
2022/12/25 08:57:18;;;;;;;32.20;12.57;;;8.10;99.90;;;;;;5097722;28;20501;-68
2022/12/25 08:59:43;;;;;;;26.73;12.15;;;8.20;99.90;;;;;;5092698;28;20548;-68
2022/12/25 09:02:11;;;;;;;25.63;11.15;;;8.00;99.90;;;;;;5068281;28;20528;-68
2022/12/25 09:04:37;;;;;;;27.60;11.57;;;8.10;99.90;;;;;;5107820;28;20042;-68
2022/12/25 09:07:02;;;;;;;30.00;12.18;;;8.10;99.90;;;;;;5102484;28;20040;-67
2022/12/25 09:09:28;;;;;;;31.35;11.52;;;8.10;99.90;;;;;;5099047;28;20035;-67
2022/12/25 09:11:53;;;;;;;27.65;11.32;;;8.10;99.90;;;;;;5095610;28;20036;-68
2022/12/25 09:14:19;;;;;;;33.25;11.55;;;8.30;99.90;;;;;;5096072;28;20069;-69
2022/12/25 09:16:45;;;;;;;24.08;11.10;;;8.10;99.90;;;;;;5100773;28;20058;-68
2022/12/25 09:19:10;;;;;;;27.00;11.32;;;8.10;99.90;;;;;;5085395;28;20076;-67
2022/12/25 09:21:36;;;;;;;27.25;11.02;;;8.20;99.90;;;;;;5099311;28;20036;-68
2022/12/25 09:24:03;;;;;;;21.70;10.18;;;8.10;99.90;;;;;;5093531;28;20031;-67
2022/12/25 09:26:28;;;;;;;29.80;10.65;;;8.30;99.90;;;;;;5079944;28;20048;-69
2022/12/25 09:28:54;;;;;;;29.75;10.68;;;8.30;99.90;;;;;;5092215;28;20353;-68
2022/12/25 09:31:21;;;;;;;25.38;10.30;;;8.30;99.90;;;;;;5089967;28;20050;-68
2022/12/25 09:33:47;;;;;;;22.55;9.68;;;8.30;99.90;;;;;;5107114;28;20505;-68
2022/12/25 09:36:13;;;;;;;21.83;9.93;;;8.30;99.90;;;;;;5107987;28;20039;-67
2022/12/25 09:38:38;;;;;;;22.83;10.35;;;8.20;99.90;;;;;;5106320;28;20035;-68
2022/12/25 09:41:21;;;;;;;22.60;9.60;;;8.30;99.90;;;;;;5072535;28;20394;-66
2022/12/25 09:43:56;;;;;;;22.75;9.15;;;8.30;99.90;;;;;;5107114;28;20487;-67
2022/12/25 09:46:26;;;;;;;24.73;9.32;;;8.30;99.90;;;;;;5109920;28;20586;-68
2022/12/25 09:49:06;;;;;;;26.50;9.48;;;8.40;99.90;;;;;;5104238;28;20146;-66
2022/12/25 09:51:36;;;;;;;22.58;9.55;;;8.30;99.90;;;;;;5109079;28;20108;-69
2022/12/25 09:54:41;;;;;;;22.95;10.02;;;8.30;99.90;;;;;;5104326;28;20122;-67
2022/12/25 09:57:12;;;;;;;19.92;8.85;;;8.40;99.90;;;;;;5087906;28;20043;-68
2022/12/25 09:59:38;;;;;;;20.90;9.13;;;8.30;99.90;;;;;;5110022;28;20055;-67
2022/12/25 10:02:24;;;;;;;23.42;9.32;;;8.30;99.90;;;;;;5112257;28;20063;-66
2022/12/25 10:05:05;;;;;;;21.98;9.05;;;8.40;99.90;;;;;;5095087;28;20044;-68
2022/12/25 10:07:43;;;;;;;20.00;8.88;;;8.40;99.90;;;;;;5102404;28;20096;-68
2022/12/25 10:10:21;;;;;;;22.00;9.38;;;8.40;99.90;;;;;;5080146;28;20505;-67
2022/12/25 10:13:09;;;;;;;22.02;9.45;;;8.50;99.90;;;;;;5107934;28;20390;-67
2022/12/25 10:16:07;;;;;;;26.15;9.63;;;8.50;99.90;;;;;;5110984;28;20055;-68
2022/12/25 10:19:09;;;;;;;21.15;9.57;;;8.50;99.90;;;;;;5112909;28;20043;-68
2022/12/25 10:21:35;;;;;;;23.20;9.45;;;8.50;99.90;;;;;;5097579;28;20035;-67
2022/12/25 10:24:04;;;;;;;27.85;9.68;;;8.50;99.90;;;;;;5088221;28;20040;-68
2022/12/25 10:26:31;;;;;;;21.58;9.43;;;8.50;99.90;;;;;;5071032;28;20043;-68
2022/12/25 10:29:03;;;;;;;20.48;9.23;;;8.50;99.90;;;;;;5085046;28;20080;-68
2022/12/25 10:31:33;;;;;;;20.40;8.88;;;8.60;99.90;;;;;;5083633;28;20048;-68
2022/12/25 10:33:59;;;;;;;17.42;9.20;;;8.60;99.90;;;;;;5100866;28;20044;-66
2022/12/25 10:36:27;;;;;;;23.90;9.93;;;8.50;99.90;;;;;;5090705;28;20050;-68
2022/12/25 10:38:54;;;;;;;23.98;9.52;;;8.50;99.90;;;;;;5065300;28;20040;-68
2022/12/25 10:41:34;;;;;;;24.30;9.85;;;8.50;99.90;;;;;;5097471;28;20365;-67
2022/12/25 10:44:10;;;;;;;;;;;8.50;99.90;;;;;;5106432;28;20067;-67
2022/12/25 10:46:36;;;;;;;23.95;9.50;;;8.50;99.90;;;;;;5076675;28;20407;-68
2022/12/25 10:49:02;;;;;;;24.98;9.40;;;8.60;99.90;;;;;;5112178;28;20065;-68
2022/12/25 10:51:34;;;;;;;22.98;9.63;;;8.50;99.90;;;;;;5108350;28;20051;-68
2022/12/25 10:54:31;;;;;;;25.05;10.63;;;8.70;99.90;;;;;;5111252;28;20043;-68
2022/12/25 10:57:02;;;;;;;19.83;9.02;;;8.70;99.90;;;;;;5101815;28;20048;-67
2022/12/25 10:59:55;;;;;;;22.75;9.95;;;8.70;99.90;;;;;;5083429;28;20043;-67
2022/12/25 11:02:25;;;;;;;24.20;9.90;;;8.60;99.90;;;;;;5099253;28;20039;-68
2022/12/25 11:04:57;;;;;;;22.83;10.27;;;8.70;99.90;;;;;;5091022;28;20039;-68
2022/12/25 11:07:24;;;;;;;24.42;10.00;;;8.70;99.90;;;;;;5107812;28;20044;-67
2022/12/25 11:09:51;;;;;;;17.88;8.85;;;8.80;99.90;;;;;;5111136;28;20032;-68
2022/12/25 11:12:19;;;;;;;22.70;9.98;;;8.80;99.90;;;;;;5091878;28;20044;-66
2022/12/25 11:14:53;;;;;;;21.75;9.82;;;8.90;99.90;;;;;;5107677;28;20118;-68
2022/12/25 11:17:22;;;;;;;21.10;10.25;;;8.90;99.90;;;;;;5112969;28;20083;-66
2022/12/25 11:19:56;;;;;;;17.60;8.93;;;8.90;99.90;;;;;;5112536;28;20090;-67
2022/12/25 11:22:22;;;;;;;21.20;9.32;;;8.90;99.90;;;;;;5087868;28;20039;-68
2022/12/25 11:24:48;;;;;;;21.75;9.85;;;8.90;99.90;;;;;;5089907;28;20494;-67
2022/12/25 11:27:26;;;;;;;17.85;9.55;;;8.90;99.90;;;;;;5112815;28;20115;-67
2022/12/25 11:30:18;;;;;;;19.73;8.90;;;8.90;99.90;;;;;;5109669;28;20058;-68
2022/12/25 11:32:47;;;;;;;16.63;9.10;;;9.00;99.90;;;;;;5107788;28;20055;-68
2022/12/25 11:35:16;;;;;;;20.05;8.60;;;9.00;99.90;;;;;;5113516;28;20065;-67
2022/12/25 11:37:46;;;;;;;20.55;8.25;;;9.00;99.90;;;;;;5114163;28;20043;-67
2022/12/25 11:40:32;;;;;;;17.27;8.20;;;9.10;99.90;;;;;;5095581;28;20423;-66
2022/12/25 11:43:06;;;;;;;19.33;9.27;;;9.10;99.90;;;;;;5093388;28;20035;-67
2022/12/25 11:45:40;;;;;;;16.50;9.15;;;9.00;99.90;;;;;;5112773;28;20024;-66
2022/12/25 11:48:18;;;;;;;19.33;9.38;;;9.10;99.90;;;;;;5109889;28;20035;-68
2022/12/25 11:51:01;;;;;;;17.90;8.43;;;9.10;99.90;;;;;;5096159;28;20039;-67
2022/12/25 11:53:45;;;;;;;18.25;8.63;;;9.00;99.90;;;;;;5085114;28;20093;-68
2022/12/25 11:56:17;;;;;;;14.93;8.15;;;9.10;99.90;;;;;;5107557;28;20039;-68
2022/12/25 11:58:55;;;;;;;18.52;8.43;;;9.10;99.90;;;;;;5109334;28;20040;-65
2022/12/25 12:01:32;;;;;;;15.45;7.85;;;9.10;99.90;;;;;;5104705;28;20069;-66
2022/12/25 12:04:00;;;;;;;16.42;7.50;;;9.10;99.90;;;;;;5101419;28;20048;-67
2022/12/25 12:06:37;;;;;;;17.48;8.75;;;9.20;99.90;;;;;;5093312;28;20048;-67
2022/12/25 12:09:24;;;;;;;17.52;8.52;;;9.10;99.90;;;;;;5108520;28;20040;-67
2022/12/25 12:12:02;;;;;;;17.92;7.95;;;9.20;99.90;;;;;;5114403;28;20043;-65
2022/12/25 12:15:02;;;;;;;14.88;7.95;;;9.10;99.90;;;;;;5107681;28;20496;-65
2022/12/25 12:17:28;;;;;;;14.25;7.90;;;9.10;99.90;;;;;;5089135;28;20051;-67
2022/12/25 12:19:54;;;;;;;18.45;8.38;;;9.10;99.90;;;;;;5104617;28;20028;-65
2022/12/25 12:22:25;;;;;;;17.08;8.00;;;9.10;99.90;;;;;;5105666;28;20031;-66
2022/12/25 12:25:05;;;;;;;20.05;8.57;;;9.10;99.90;;;;;;5112225;28;20535;-65
2022/12/25 12:27:39;;;;;;;17.15;8.02;;;9.10;99.90;;;;;;5108702;28;20052;-67
2022/12/25 12:30:06;;;;;;;14.77;7.38;;;9.10;99.90;;;;;;5109243;28;20088;-67
2022/12/25 12:32:37;;;;;;;17.75;7.78;;;9.10;99.90;;;;;;5095174;28;20407;-66
2022/12/25 12:35:26;;;;;;;18.45;8.45;;;9.10;99.90;;;;;;5112251;28;20048;-67
2022/12/25 12:37:59;;;;;;;17.58;8.00;;;9.10;99.90;;;;;;5112775;28;20075;-67
2022/12/25 12:40:28;;;;;;;14.38;7.60;;;9.10;99.90;;;;;;5099190;28;20043;-67
2022/12/25 12:42:54;;;;;;;15.73;8.32;;;9.10;99.90;;;;;;5108019;28;20039;-67
2022/12/25 12:45:27;;;;;;;17.30;8.68;;;9.10;99.90;;;;;;5096736;28;20061;-67
2022/12/25 12:47:53;;;;;;;19.58;8.32;;;9.10;99.90;;;;;;5091140;28;20061;-67
2022/12/25 12:50:32;;;;;;;21.15;8.35;;;9.20;99.90;;;;;;5101144;28;20035;-67
2022/12/25 12:52:58;;;;;;;17.20;8.27;;;9.10;99.90;;;;;;5111227;28;20059;-67
2022/12/25 12:55:42;;;;;;;17.60;9.10;;;9.10;99.90;;;;;;5109433;28;20047;-66
2022/12/25 12:58:26;;;;;;;17.80;8.98;;;9.10;99.90;;;;;;5091782;28;20040;-67
2022/12/25 13:01:02;;;;;;;16.02;8.25;;;9.10;99.90;;;;;;5093746;28;20036;-67
2022/12/25 13:03:39;;;;;;;17.15;8.95;;;9.10;99.90;;;;;;5114573;28;20050;-67
2022/12/25 13:06:16;;;;;;;20.05;8.98;;;9.10;99.90;;;;;;5104804;28;20043;-67
2022/12/25 13:08:59;;;;;;;21.10;8.82;;;9.10;99.90;;;;;;5095291;28;20487;-67
2022/12/25 13:11:28;;;;;;;21.60;9.80;;;9.10;99.90;;;;;;5094214;28;20044;-67
2022/12/25 13:13:58;;;;;;;21.65;9.77;;;9.10;99.90;;;;;;5077279;28;20039;-67
2022/12/25 13:16:39;;;;;;;18.45;9.23;;;9.00;99.90;;;;;;5110260;28;20054;-67
2022/12/25 13:19:10;;;;;;;18.52;9.95;;;9.00;99.90;;;;;;5100439;28;20395;-68
2022/12/25 13:21:35;;;;;;;;;;;9.00;99.90;;;;;;5095417;28;20479;-67
2022/12/25 13:24:07;;;;;;;22.02;9.38;;;9.00;99.90;;;;;;5100701;28;19927;-67
2022/12/25 13:26:34;;;;;;;21.92;10.40;;;9.10;99.90;;;;;;5103114;28;20479;-68
2022/12/25 13:29:00;;;;;;;20.67;9.93;;;9.00;99.90;;;;;;5102986;28;20379;-68
2022/12/25 13:31:28;;;;;;;31.15;12.60;;;9.00;99.90;;;;;;5092099;28;20044;-67
2022/12/25 13:33:58;;;;;;;26.02;11.95;;;8.90;99.90;;;;;;5108282;28;20379;-67
2022/12/25 13:36:27;;;;;;;21.50;11.55;;;8.90;99.90;;;;;;5068776;28;20062;-68
2022/12/25 13:38:56;;;;;;;23.00;12.02;;;8.90;99.90;;;;;;5108641;28;20524;-68
2022/12/25 13:44:23;;;;;;;25.48;12.45;;;8.80;99.90;;;;;;5088961;28;20043;-69
2022/12/25 13:46:48;;;;;;;25.88;11.32;;;8.80;99.90;;;;;;5091342;28;20118;-68
2022/12/25 13:49:16;;;;;;;20.25;10.80;;;8.80;99.90;;;;;;5090544;28;20130;-68
2022/12/25 13:51:42;;;;;;;26.25;12.05;;;8.70;99.90;;;;;;5088185;28;20693;-68
2022/12/25 13:54:10;;;;;;;26.27;12.18;;;8.60;99.90;;;;;;5085748;28;20044;-68
2022/12/25 13:56:36;;;;;;;23.27;11.23;;;8.60;99.90;;;;;;5082886;28;20455;-69
2022/12/25 13:59:03;;;;;;;26.60;11.05;;;8.60;99.90;;;;;;5089410;28;20047;-69
2022/12/25 14:01:29;;;;;;;28.98;11.60;;;8.60;99.90;;;;;;5112233;28;20031;-68
2022/12/25 14:03:55;;;;;;;23.33;11.77;;;8.60;99.90;;;;;;5112798;28;20047;-70
2022/12/25 14:06:25;;;;;;;25.38;11.50;;;8.50;99.90;;;;;;5108157;28;20040;-68
2022/12/25 14:08:57;;;;;;;24.27;10.98;;;8.50;99.90;;;;;;5092823;28;20043;-70
2022/12/25 14:11:24;;;;;;;27.90;12.02;;;8.50;99.90;;;;;;5094279;28;20119;-68
2022/12/25 14:13:56;;;;;;;26.88;12.02;;;8.50;99.90;;;;;;5103854;28;20487;-68
2022/12/25 14:16:22;;;;;;;25.70;11.90;;;8.50;99.90;;;;;;5072472;28;20055;-69
2022/12/25 14:18:57;;;;;;;24.92;11.90;;;8.50;99.90;;;;;;5103030;28;20053;-68
2022/12/25 14:21:48;;;;;;;24.92;11.88;;;8.50;99.90;;;;;;5087549;28;20078;-69
2022/12/25 14:24:14;;;;;;;26.63;12.55;;;8.50;99.90;;;;;;5086654;28;20119;-69
2022/12/25 14:26:40;;;;;;;26.50;12.18;;;8.50;99.90;;;;;;5089091;28;20036;-68
2022/12/25 14:29:08;;;;;;;30.58;13.38;;;8.50;99.90;;;;;;5090381;28;20031;-68
2022/12/25 14:31:37;;;;;;;25.42;12.32;;;8.50;99.90;;;;;;5090132;28;20093;-69
2022/12/25 14:34:12;;;;;;;26.65;12.93;;;8.40;99.90;;;;;;5093314;28;20406;-68
2022/12/25 14:36:38;;;;;;;31.73;13.73;;;8.40;99.90;;;;;;5091468;28;20043;-69